Time;durP1;ratioP1;P1;durP2;ratioP2;P2;SDS_P1;SDS_P2;PMS_P1;PMS_P2;Temp;Humidity;BMP_temperature;BMP_pressure;BME280_temperature;BME280_humidity;BME280_pressure;Samples;Min_cycle;Max_cycle;Signal;HPM_P1;HPM_P2
2022/11/04 00:01:21;;;;;;;;;;;;;;;18.63;68.80;99818.55;2285401;76;50325;-78
2022/11/04 00:04:23;;;;;;;;;;;;;;;18.65;68.79;99813.80;2302088;77;50339;-78
2022/11/04 00:14:04;;;;;;;;;;;;;;;18.62;68.79;99803.48;2295513;76;22242;-77
2022/11/04 00:17:25;;;;;;;;;;;;;;;18.60;68.79;99799.69;2266896;77;51577;-78
2022/11/04 00:30:22;;;;;;;;;;;;;;;18.56;68.81;99789.58;2291069;76;23044;-77
2022/11/04 00:33:26;;;;;;;;;;;;;;;18.56;68.82;99798.95;2290414;77;50408;-77
2022/11/04 00:36:27;;;;;;;;;;;;;;;18.55;68.85;99787.91;2266494;77;50965;-77
2022/11/04 00:39:29;;;;;;;;;;;;;;;18.55;68.82;99789.25;2305819;75;50735;-77
2022/11/04 00:42:31;;;;;;;;;;;;;;;18.53;68.76;99775.26;2342089;75;51514;-77
2022/11/04 00:45:32;;;;;;;;;;;;;;;18.52;68.81;99785.13;2307343;76;51367;-77
2022/11/04 00:48:34;;;;;;;;;;;;;;;18.52;68.90;99785.64;2308700;76;49259;-77
2022/11/04 00:51:35;;;;;;;;;;;;;;;18.49;68.93;99786.36;2333215;76;50367;-77
2022/11/04 00:54:37;;;;;;;;;;;;;;;18.49;68.94;99785.53;2307210;76;51873;-77
2022/11/04 00:57:38;;;;;;;;;;;;;;;18.49;68.90;99777.50;2333254;76;50368;-77
2022/11/04 01:00:40;;;;;;;;;;;;;;;18.49;68.87;99782.86;2281574;76;51852;-77
2022/11/04 01:03:42;;;;;;;;;;;;;;;18.47;68.92;99777.72;2306904;76;51469;-77
2022/11/04 01:06:43;;;;;;;;;;;;;;;18.48;68.83;99774.00;2331956;76;51530;-78
2022/11/04 01:09:45;;;;;;;;;;;;;;;18.48;68.81;99770.50;2333505;76;51543;-77
2022/11/04 01:12:46;;;;;;;;;;;;;;;18.47;68.76;99767.01;2285514;76;51106;-78
2022/11/04 01:15:48;;;;;;;;;;;;;;;18.47;68.76;99772.85;2302757;76;51460;-77
2022/11/04 01:18:49;;;;;;;;;;;;;;;18.47;68.73;99770.17;2302821;76;50355;-78
2022/11/04 01:21:51;;;;;;;;;;;;;;;18.46;68.70;99765.34;2324863;76;50299;-77
2022/11/04 01:24:53;;;;;;;;;;;;;;;18.46;68.67;99743.09;2302750;76;51024;-77
2022/11/04 01:27:55;;;;;;;;;;;;;;;18.45;68.68;99739.59;2302346;76;51514;-77
2022/11/04 01:30:56;;;;;;;;;;;;;;;18.45;68.69;99737.44;2325114;76;50705;-77
2022/11/04 01:33:58;;;;;;;;;;;;;;;18.45;68.73;99738.77;2324563;75;52229;-77
2022/11/04 01:36:59;;;;;;;;;;;;;;;18.44;68.73;99743.80;2297841;76;50716;-77
2022/11/04 01:40:01;;;;;;;;;;;;;;;18.43;68.73;99738.97;2297141;76;50403;-77
2022/11/04 01:43:02;;;;;;;;;;;;;;;18.42;68.75;99734.65;2338305;75;50140;-77
2022/11/04 01:46:04;;;;;;;;;;;;;;;18.43;68.71;99727.44;2324899;75;50429;-77
2022/11/04 01:49:08;;;;;;;;;;;;;;;18.42;68.71;99738.67;2302243;76;52559;-77
2022/11/04 01:52:12;;;;;;;;;;;;;;;18.41;68.77;99747.71;2322391;75;50310;-77
2022/11/04 01:55:15;;;;;;;;;;;;;;;18.41;68.74;99758.43;2332857;75;50427;-77
2022/11/04 01:58:17;;;;;;;;;;;;;;;18.41;68.74;99750.91;2323989;76;51555;-77
2022/11/04 02:01:18;;;;;;;;;;;;;;;18.40;68.71;99750.09;2325251;76;50689;-77
2022/11/04 02:04:26;;;;;;;;;;;;;;;18.40;68.74;99744.73;2324335;76;51566;-78
2022/11/04 02:07:27;;;;;;;;;;;;;;;18.38;68.66;99728.04;2325174;76;50481;-78
2022/11/04 02:10:30;;;;;;;;;;;;;;;18.37;68.77;99733.09;2324935;76;50419;-77
2022/11/04 02:13:32;;;;;;;;;;;;;;;18.37;68.78;99727.73;2276363;76;52559;-78
2022/11/04 02:16:38;;;;;;;;;;;;;;;18.37;68.79;99717.03;2326047;75;51586;-77
2022/11/04 02:19:56;;;;;;;;;;;;;;;18.37;68.75;99718.37;2324510;76;51630;-78
2022/11/04 02:23:18;;;;;;;;;;;;;;;18.37;68.75;99715.69;2245598;79;50842;-78
2022/11/04 02:26:24;;;;;;;;;;;;;;;18.38;68.70;99714.65;2291490;76;51025;-78
2022/11/04 02:29:27;;;;;;;;;;;;;;;18.37;68.70;99713.02;2335103;75;50493;-78
2022/11/04 02:32:33;;;;;;;;;;;;;;;18.36;68.70;99705.98;2325998;75;50461;-78
2022/11/04 02:35:52;;;;;;;;;;;;;;;18.35;68.73;99701.67;2318402;76;50378;-77
2022/11/04 02:39:11;;;;;;;;;;;;;;;18.34;68.76;99703.20;2293638;76;50991;-78
2022/11/04 02:42:15;;;;;;;;;;;;;;;18.33;68.81;99702.39;2319061;76;50445;-78
2022/11/04 02:45:30;;;;;;;;;;;;;;;18.35;68.73;99698.99;2318953;76;50479;-78
2022/11/04 02:48:38;;;;;;;;;;;;;;;18.34;68.75;99705.88;2318250;76;50146;-78
2022/11/04 02:51:42;;;;;;;;;;;;;;;18.33;68.75;99698.37;2318171;76;51650;-76
2022/11/04 02:54:51;;;;;;;;;;;;;;;18.32;68.77;99688.70;2322211;75;51555;-76
2022/11/04 02:57:53;;;;;;;;;;;;;;;18.32;68.74;99686.02;2320415;76;50801;-76
2022/11/04 03:00:55;;;;;;;;;;;;;;;18.32;68.77;99686.54;2321534;75;50457;-76
2022/11/04 03:03:58;;;;;;;;;;;;;;;18.30;68.79;99694.77;2321325;76;50334;-76
2022/11/04 03:07:00;;;;;;;;;;;;;;;18.30;68.77;99683.23;2321904;76;51609;-78
2022/11/04 03:10:02;;;;;;;;;;;;;;;18.32;68.74;99680.66;2321492;76;51545;-77
2022/11/04 03:13:11;;;;;;;;;;;;;;;18.32;68.71;99672.63;2321603;76;50828;-76
2022/11/04 03:16:14;;;;;;;;;;;;;;;18.32;68.64;99677.16;2309362;76;51764;-77
2022/11/04 03:19:18;;;;;;;;;;;;;;;18.32;68.67;99678.50;2321725;76;50438;-77
2022/11/04 03:22:20;;;;;;;;;;;;;;;18.31;68.67;99683.53;2321563;76;50537;-77
2022/11/04 03:25:23;;;;;;;;;;;;;;;18.30;68.66;99684.05;2325523;76;51532;-77
2022/11/04 03:28:26;;;;;;;;;;;;;;;18.31;68.65;99691.05;2326643;76;50424;-77
2022/11/04 03:31:29;;;;;;;;;;;;;;;18.31;68.61;99687.55;2299228;76;52619;-77
2022/11/04 03:34:31;;;;;;;;;;;;;;;18.29;68.62;99675.72;2326364;76;50773;-77
2022/11/04 03:37:33;;;;;;;;;;;;;;;18.29;68.55;99681.08;2326336;76;50640;-77
2022/11/04 03:40:34;;;;;;;;;;;;;;;18.30;68.55;99687.25;2326391;76;51568;-77
2022/11/04 03:43:36;;;;;;;;;;;;;;;18.31;68.51;99709.80;2299339;76;49615;-77
2022/11/04 03:46:38;;;;;;;;;;;;;;;18.30;68.52;99728.23;2326374;76;50720;-77
2022/11/04 03:49:39;;;;;;;;;;;;;;;18.28;68.55;99726.27;2326483;76;50438;-77
2022/11/04 03:52:41;;;;;;;;;;;;;;;18.28;68.50;99720.39;2322661;75;50351;-77
2022/11/04 03:56:01;;;;;;;;;;;;;;;18.28;68.56;99724.94;2310889;76;50064;-77
2022/11/04 03:59:07;;;;;;;;;;;;;;;18.24;68.62;99713.81;2326349;76;50662;-77
2022/11/04 04:02:10;;;;;;;;;;;;;;;18.25;68.58;99719.99;2326153;76;51484;-76
2022/11/04 04:05:22;;;;;;;;;;;;;;;18.25;68.57;99715.97;2325238;76;51430;-76
2022/11/04 04:08:34;;;;;;;;;;;;;;;18.25;68.55;99710.62;2272859;76;52526;-78
2022/11/04 04:11:40;;;;;;;;;;;;;;;18.25;68.53;99715.97;2326637;76;51498;-77
2022/11/04 04:14:43;;;;;;;;;;;;;;;18.21;68.56;99708.02;2326499;76;50341;-77
2022/11/04 04:17:46;;;;;;;;;;;;;;;18.26;68.50;99709.58;2326590;76;50762;-78
2022/11/04 04:20:48;;;;;;;;;;;;;;;18.25;68.37;99710.62;2299610;76;52446;-77
2022/11/04 04:30:29;;;;;;;;;;;;;;;18.31;68.52;99718.34;2313519;77;23208;-78
2022/11/04 04:33:31;;;;;;;;;;;;;;;18.36;68.51;99714.02;2288952;77;51016;-78
2022/11/04 04:36:37;;;;;;;;;;;;;;;18.43;68.43;99712.19;2313293;77;50727;-78
2022/11/04 04:46:18;;;;;;;;;;;;;;;18.64;68.06;99703.64;2313954;77;23332;-78
2022/11/04 04:49:20;;;;;;;;;;;;;;;18.64;67.97;99696.94;2313528;77;51501;-77
2022/11/04 04:52:22;;;;;;;;;;;;;;;18.64;67.91;99696.94;2318891;76;51589;-78
2022/11/04 04:55:23;;;;;;;;;;;;;;;18.63;67.92;99699.32;2324711;76;51595;-78
2022/11/04 04:58:25;;;;;;;;;;;;;;;18.64;67.96;99696.94;2310260;76;52588;-78
2022/11/04 05:01:27;;;;;;;;;;;;;;;18.62;67.98;99696.31;2309571;76;51642;-74
2022/11/04 05:04:28;;;;;;;;;;;;;;;18.63;68.09;99699.32;2309103;76;51527;-77
2022/11/04 05:07:30;;;;;;;;;;;;;;;18.60;68.09;99713.11;2309736;76;50671;-79
2022/11/04 05:10:31;;;;;;;;;;;;;;;18.58;68.21;99716.53;2309248;76;49576;-77
2022/11/04 05:13:33;;;;;;;;;;;;;;;18.61;68.15;99718.80;2308779;76;51543;-77
2022/11/04 05:16:35;;;;;;;;;;;;;;;18.63;68.08;99712.72;2309209;76;50060;-76
2022/11/04 05:19:36;;;;;;;;;;;;;;;18.63;68.00;99712.72;2309565;76;50391;-76
2022/11/04 05:22:38;;;;;;;;;;;;;;;18.62;68.07;99718.56;2319458;75;49619;-77
2022/11/04 05:25:40;;;;;;;;;;;;;;;18.61;68.06;99722.81;2335122;75;50816;-77
2022/11/04 05:28:41;;;;;;;;;;;;;;;18.58;68.13;99724.05;2358638;75;51579;-77
2022/11/04 05:31:43;;;;;;;;;;;;;;;18.57;68.13;99713.52;2358745;75;51496;-78
2022/11/04 05:34:44;;;;;;;;;;;;;;;18.55;68.21;99725.80;2336049;75;51486;-76
2022/11/04 05:37:46;;;;;;;;;;;;;;;18.50;68.34;99730.95;2336120;75;50388;-77
2022/11/04 05:40:47;;;;;;;;;;;;;;;18.47;68.41;99737.54;2328639;74;50731;-77
2022/11/04 05:43:50;;;;;;;;;;;;;;;18.50;68.40;99742.48;2338994;75;50323;-78
2022/11/04 05:46:52;;;;;;;;;;;;;;;18.57;68.28;99749.69;2336814;75;50169;-77
2022/11/04 05:49:54;;;;;;;;;;;;;;;18.59;68.18;99757.83;2366967;75;51547;-78
2022/11/04 05:52:58;;;;;;;;;;;;;;;18.60;68.15;99751.47;2366398;75;51530;-77
2022/11/04 05:56:00;;;;;;;;;;;;;;;18.60;68.10;99752.80;2366197;75;51542;-77
2022/11/04 05:59:01;;;;;;;;;;;;;;;18.60;68.07;99754.14;2310313;75;49702;-75
2022/11/04 06:02:03;;;;;;;;;;;;;;;18.57;68.10;99753.70;2336781;75;50286;-77
2022/11/04 06:05:05;;;;;;;;;;;;;;;18.56;68.16;99760.11;2336220;75;50116;-76
2022/11/04 06:08:06;;;;;;;;;;;;;;;18.56;68.25;99764.13;2350506;75;50529;-77
2022/11/04 06:11:08;;;;;;;;;;;;;;;18.48;68.41;99778.55;2302163;75;51366;-77
2022/11/04 06:14:09;;;;;;;;;;;;;;;18.49;68.44;99781.52;2280087;77;50721;-76
2022/11/04 06:17:15;;;;;;;;;;;;;;;18.52;68.39;99782.45;2261582;78;50626;-75
2022/11/04 06:20:16;;;;;;;;;;;;;;;18.58;68.26;99787.53;2301616;77;51669;-75
2022/11/04 06:23:18;;;;;;;;;;;;;;;18.61;68.14;99790.61;2326400;75;52855;-75
2022/11/04 06:26:20;;;;;;;;;;;;;;;18.62;68.13;99794.11;2350512;75;51427;-75
2022/11/04 06:29:22;;;;;;;;;;;;;;;18.62;68.12;99794.11;2350442;75;50387;-76
2022/11/04 06:32:23;;;;;;;;;;;;;;;18.60;68.13;99792.14;2327510;75;50497;-75
2022/11/04 06:35:25;;;;;;;;;;;;;;;18.57;68.19;99790.70;2350216;75;50727;-76
2022/11/04 06:38:28;;;;;;;;;;;;;;;18.59;68.15;99801.22;2350285;75;50675;-77
2022/11/04 06:41:30;;;;;;;;;;;;;;;18.56;68.26;99801.63;2321407;75;51542;-77
2022/11/04 06:44:33;;;;;;;;;;;;;;;18.52;68.36;99812.44;2308803;76;51645;-77
2022/11/04 06:47:34;;;;;;;;;;;;;;;18.49;68.45;99815.82;2321027;75;50396;-77
2022/11/04 06:50:36;;;;;;;;;;;;;;;18.55;68.41;99813.36;2321071;76;50141;-77
2022/11/04 06:53:38;;;;;;;;;;;;;;;18.59;68.31;99815.44;2308627;76;50722;-77
2022/11/04 06:56:39;;;;;;;;;;;;;;;18.61;68.24;99820.61;2308940;76;50761;-79
2022/11/04 06:59:41;;;;;;;;;;;;;;;18.61;68.24;99825.97;2308748;75;52577;-77
2022/11/04 07:02:42;;;;;;;;;;;;;;;18.59;68.25;99824.81;2308849;76;51572;-74
2022/11/04 07:05:44;;;;;;;;;;;;;;;18.59;68.48;99827.49;2320749;76;50714;-75
2022/11/04 07:08:46;;;;;;;;;;;;;;;18.62;68.23;99831.10;2308679;76;53321;-75
2022/11/04 07:11:47;;;;;;;;;;;;;;;18.67;68.12;99834.00;2296833;76;49656;-76
2022/11/04 07:14:49;;;;;;;;;;;;;;;18.61;68.32;99834.00;2308633;76;50747;-75
2022/11/04 07:17:51;;;;;;;;;;;;;;;18.58;68.37;99824.52;2321076;76;50639;-74
2022/11/04 07:20:52;;;;;;;;;;;;;;;18.63;68.40;99823.91;2312637;75;52108;-75
2022/11/04 07:23:54;;;;;;;;;;;;;;;18.67;68.37;99822.45;2319570;75;50095;-74
2022/11/04 07:26:55;;;;;;;;;;;;;;;18.71;68.33;99819.70;2341790;75;51509;-74
2022/11/04 07:29:57;;;;;;;;;;;;;;;18.70;68.47;99820.70;2329608;75;52596;-74
2022/11/04 07:32:58;;;;;;;;;;;;;;;18.66;68.10;99821.64;2336480;75;51773;-76
2022/11/04 07:36:07;;;;;;;;;;;;;;;18.64;67.81;99816.17;2356374;74;49551;-76
2022/11/04 07:39:08;;;;;;;;;;;;;;;18.65;67.97;99829.87;2323156;75;51569;-77
2022/11/04 07:42:10;;;;;;;;;;;;;;;18.64;68.53;99824.21;2315621;75;50340;-78
2022/11/04 07:45:12;;;;;;;;;;;;;;;18.64;68.93;99831.73;2348401;75;50462;-76
2022/11/04 07:48:17;;;;;;;;;;;;;;;18.66;69.07;99827.52;2311870;74;52768;-76
2022/11/04 07:51:41;;;;;;;;;;;;;;;18.67;69.09;99813.90;2342395;75;22546;-77
2022/11/04 07:54:43;;;;;;;;;;;;;;;18.69;68.88;99814.53;2342849;74;22341;-76
2022/11/04 07:57:45;;;;;;;;;;;;;;;18.71;68.95;99813.81;2313846;75;50372;-75
2022/11/04 08:00:47;;;;;;;;;;;;;;;18.73;68.91;99810.94;2304063;76;52585;-75
2022/11/04 08:03:49;;;;;;;;;;;;;;;18.73;68.57;99812.28;2302886;76;51517;-76
2022/11/04 08:06:51;;;;;;;;;;;;;;;18.71;68.76;99806.30;2354793;75;50035;-76
2022/11/04 08:09:52;;;;;;;;;;;;;;;18.73;68.70;99809.61;2374004;74;50413;-76
2022/11/04 08:12:54;;;;;;;;;;;;;;;18.73;68.63;99808.27;2324361;75;50260;-77
2022/11/04 08:15:56;;;;;;;;;;;;;;;18.74;68.63;99799.19;2372817;75;51415;-77
2022/11/04 08:19:02;;;;;;;;;;;;;;;18.74;68.65;99805.06;2373148;75;50420;-77
2022/11/04 08:22:01;;;;;;;;;;;;;;;18.74;68.72;99811.24;2348366;75;22331;-77
2022/11/04 08:25:02;;;;;;;;;;;;;;;18.78;68.56;99827.27;2311341;76;52669;-78
2022/11/04 08:28:04;;;;;;;;;;;;;;;18.78;68.60;99832.63;2297913;76;49893;-74
2022/11/04 08:31:07;;;;;;;;;;;;;;;18.83;68.43;99827.97;2331955;76;52227;-77
2022/11/04 08:34:08;;;;;;;;;;;;;;;18.80;68.51;99822.50;2298994;76;49631;-76
2022/11/04 08:37:12;;;;;;;;;;;;;;;18.78;68.44;99827.27;2315959;75;50915;-77
2022/11/04 08:40:13;;;;;;;;;;;;;;;18.78;68.50;99831.28;2338888;74;50838;-76
2022/11/04 08:43:15;;;;;;;;;;;;;;;18.77;68.53;99840.34;2306359;76;51524;-78
2022/11/04 08:46:16;;;;;;;;;;;;;;;18.76;68.57;99838.70;2306444;76;53129;-77
2022/11/04 08:49:18;;;;;;;;;;;;;;;18.74;68.55;99838.56;2340888;76;50798;-75
2022/11/04 08:52:20;;;;;;;;;;;;;;;18.77;68.57;99837.66;2303059;76;51543;-76
2022/11/04 08:55:21;;;;;;;;;;;;;;;18.78;68.58;99837.14;2303072;76;51529;-76
2022/11/04 08:58:23;;;;;;;;;;;;;;;18.83;68.41;99854.28;2340803;76;51572;-76
2022/11/04 09:01:25;;;;;;;;;;;;;;;18.83;68.42;99855.63;2304151;76;49379;-78
2022/11/04 09:04:27;;;;;;;;;;;;;;;18.79;68.47;99843.65;2337608;75;51554;-77
2022/11/04 09:07:29;;;;;;;;;;;;;;;18.78;68.49;99846.03;2338855;74;51437;-78
2022/11/04 09:10:30;;;;;;;;;;;;;;;18.78;68.46;99839.33;2332273;76;50806;-77
2022/11/04 09:13:32;;;;;;;;;;;;;;;18.76;68.47;99825.30;2280000;76;52600;-75
2022/11/04 09:16:34;;;;;;;;;;;;;;;18.77;68.55;99825.59;2340825;76;51479;-77
2022/11/04 09:19:35;;;;;;;;;;;;;;;18.77;68.64;99822.09;2303075;76;51516;-76
2022/11/04 09:22:40;;;;;;;;;;;;;;;18.79;68.57;99822.20;2303237;76;51408;-75
2022/11/04 09:25:40;;;;;;;;;;;;;;;18.79;68.53;99812.83;2303052;76;22313;-75
2022/11/04 09:28:42;;;;;;;;;;;;;;;18.79;68.35;99800.77;2303031;76;50400;-76
2022/11/04 09:31:43;;;;;;;;;;;;;;;18.75;68.40;99810.23;2302995;76;50493;-76
2022/11/04 09:34:45;;;;;;;;;;;;;;;18.73;68.44;99827.02;2339337;76;50747;-75
2022/11/04 09:37:46;;;;;;;;;;;;;;;18.74;68.89;99824.64;2337868;75;51572;-74
2022/11/04 09:40:49;;;;;;;;;;;;;;;18.75;68.91;99815.59;2340558;76;51595;-76
2022/11/04 09:44:01;;;;;;;;;;;;;;;18.72;68.90;99818.13;2334575;76;50300;-75
2022/11/04 09:47:03;;;;;;;;;;;;;;;18.74;68.96;99815.27;2324451;76;50807;-76
2022/11/04 09:50:07;;;;;;;;;;;;;;;18.76;68.96;99808.41;2326160;76;51541;-76
2022/11/04 09:53:10;;;;;;;;;;;;;;;18.75;68.89;99795.49;2326225;76;50419;-76
2022/11/04 09:56:16;;;;;;;;;;;;;;;18.77;68.88;99807.36;2325995;76;50945;-76
2022/11/04 10:02:51;;;;;;;;;;;;;;;18.75;68.96;99815.59;2329406;76;22479;-75
2022/11/04 10:05:54;;;;;;;;;;;;;;;18.77;68.95;99834.16;2328442;74;51561;-77
2022/11/04 10:09:03;;;;;;;;;;;;;;;18.75;68.87;99849.09;2332325;75;51544;-77
2022/11/04 10:12:06;;;;;;;;;;;;;;;18.75;68.99;99859.81;2332580;76;50282;-76
2022/11/04 10:15:24;;;;;;;;;;;;;;;18.73;68.99;99853.82;2301381;76;49757;-76
2022/11/04 10:18:27;;;;;;;;;;;;;;;18.73;69.01;99855.16;2332404;76;50563;-75
2022/11/04 10:21:33;;;;;;;;;;;;;;;18.72;69.01;99857.52;2332828;75;50540;-76
2022/11/04 10:24:42;;;;;;;;;;;;;;;18.74;69.00;99866.70;2331893;76;50809;-75
2022/11/04 10:27:44;;;;;;;;;;;;;;;18.74;69.02;99876.08;2342623;74;50948;-75
2022/11/04 10:30:46;;;;;;;;;;;;;;;18.76;68.95;99878.90;2377689;73;51566;-77
2022/11/04 10:33:50;;;;;;;;;;;;;;;18.75;68.92;99880.40;2377124;75;50788;-76
2022/11/04 10:36:51;;;;;;;;;;;;;;;18.73;68.99;99873.92;2368539;74;51471;-75
2022/11/04 10:39:55;;;;;;;;;;;;;;;18.72;68.96;99873.07;2370144;75;51436;-76
2022/11/04 10:42:59;;;;;;;;;;;;;;;18.71;68.98;99878.65;2349458;74;51536;-76
2022/11/04 10:46:19;;;;;;;;;;;;;;;18.72;68.99;99877.09;2366885;75;50809;-75
2022/11/04 10:49:25;;;;;;;;;;;;;;;18.74;69.07;99870.72;2369858;74;50449;-77
2022/11/04 10:52:25;;;;;;;;;;;;;;;18.72;69.09;99866.89;2369684;75;22300;-75
2022/11/04 10:55:28;;;;;;;;;;;;;;;18.74;69.03;99871.54;2368623;74;51512;-76
2022/11/04 10:58:31;;;;;;;;;;;;;;;18.72;69.00;99878.95;2369778;75;51787;-75
2022/11/04 11:01:33;;;;;;;;;;;;;;;18.72;69.02;99885.65;2358184;74;51473;-76
2022/11/04 11:04:35;;;;;;;;;;;;;;;18.71;69.01;99904.11;2382153;73;50794;-76
2022/11/04 11:07:37;;;;;;;;;;;;;;;18.72;69.01;99895.03;2407605;72;50266;-76
2022/11/04 11:10:38;;;;;;;;;;;;;;;18.71;69.04;99896.07;2391642;73;50230;-75
2022/11/04 11:13:41;;;;;;;;;;;;;;;18.72;69.00;99909.77;2397425;72;50227;-74
2022/11/04 11:16:44;;;;;;;;;;;;;;;18.73;69.03;99912.78;2385878;73;51680;-76
2022/11/04 11:19:57;;;;;;;;;;;;;;;18.71;69.11;99918.33;2414255;73;50291;-75
2022/11/04 11:23:00;;;;;;;;;;;;;;;18.70;69.12;99923.88;2407086;72;51382;-76
2022/11/04 11:26:02;;;;;;;;;;;;;;;18.70;69.13;99925.22;2398477;74;52437;-75
2022/11/04 11:29:06;;;;;;;;;;;;;;;18.72;69.10;99929.87;2402668;74;49643;-76
2022/11/04 11:32:08;;;;;;;;;;;;;;;18.72;69.15;99932.03;2376304;73;22279;-76
2022/11/04 11:35:16;;;;;;;;;;;;;;;18.73;69.08;99939.58;2393635;74;51625;-76
2022/11/04 11:38:19;;;;;;;;;;;;;;;18.72;69.10;99936.56;2374718;74;50703;-76
2022/11/04 11:41:27;;;;;;;;;;;;;;;18.72;69.10;99941.92;2381715;73;51037;-75
2022/11/04 11:44:36;;;;;;;;;;;;;;;18.70;69.10;99942.63;2407002;73;22373;-76
2022/11/04 11:47:40;;;;;;;;;;;;;;;18.68;69.12;99940.17;2412755;73;22364;-76
2022/11/04 11:50:40;;;;;;;;;;;;;;;18.68;69.20;99946.05;2412494;73;22430;-77
2022/11/04 11:53:44;;;;;;;;;;;;;;;18.68;69.20;99939.35;2363919;72;50921;-72
2022/11/04 11:56:56;;;;;;;;;;;;;;;18.70;68.96;99935.45;2422338;72;50668;-75
2022/11/04 12:00:01;;;;;;;;;;;;;;;18.69;69.04;99943.67;2411198;72;51587;-76
2022/11/04 12:03:14;;;;;;;;;;;;;;;18.64;69.14;99946.13;2406509;73;50691;-75
2022/11/04 12:06:17;;;;;;;;;;;;;;;18.68;69.22;99936.67;2393581;73;52674;-76
2022/11/04 12:09:23;;;;;;;;;;;;;;;18.69;69.20;99933.77;2426698;72;51590;-76
2022/11/04 12:12:29;;;;;;;;;;;;;;;18.69;69.27;99936.97;2443092;72;51660;-75
2022/11/04 12:15:42;;;;;;;;;;;;;;;18.69;69.26;99927.59;2440795;72;50411;-75
2022/11/04 12:18:49;;;;;;;;;;;;;;;18.68;69.25;99926.77;2373250;73;50929;-75
2022/11/04 12:22:09;;;;;;;;;;;;;;;18.68;69.25;99923.27;2395567;73;51443;-75
2022/11/04 12:25:15;;;;;;;;;;;;;;;18.68;69.28;99927.30;2401235;73;51642;-75
2022/11/04 12:28:23;;;;;;;;;;;;;;;18.66;69.29;99920.78;2419068;73;51606;-76
2022/11/04 12:31:28;;;;;;;;;;;;;;;18.68;69.32;99933.47;2409920;73;21992;-75
2022/11/04 12:34:37;;;;;;;;;;;;;;;18.68;69.17;99926.77;2407372;73;50549;-75
2022/11/04 12:37:40;;;;;;;;;;;;;;;18.67;69.08;99935.00;2416445;72;50474;-73
2022/11/04 12:40:46;;;;;;;;;;;;;;;18.62;69.10;99932.92;2393217;73;50402;-77
2022/11/04 12:43:52;;;;;;;;;;;;;;;18.62;69.17;99940.14;2405545;73;52632;-75
2022/11/04 12:47:14;;;;;;;;;;;;;;;18.67;69.18;99945.72;2411524;73;50953;-76
2022/11/04 12:50:34;;;;;;;;;;;;;;;18.68;69.14;99944.72;2406845;73;50465;-77
2022/11/04 12:53:43;;;;;;;;;;;;;;;18.69;69.11;99943.67;2396279;74;50395;-76
2022/11/04 12:56:44;;;;;;;;;;;;;;;18.71;69.17;99937.61;2382745;73;51165;-76
2022/11/04 12:59:48;;;;;;;;;;;;;;;18.73;69.01;99939.58;2379184;73;51588;-75
2022/11/04 13:02:54;;;;;;;;;;;;;;;18.77;68.93;99931.46;2369731;74;51561;-75
2022/11/04 13:06:03;;;;;;;;;;;;;;;18.75;68.99;99934.84;2362559;73;51784;-76
2022/11/04 13:09:21;;;;;;;;;;;;;;;18.75;68.92;99938.87;2378628;73;50988;-76
2022/11/04 13:12:30;;;;;;;;;;;;;;;18.75;68.87;99945.57;2398165;73;50791;-75
2022/11/04 13:15:33;;;;;;;;;;;;;;;18.76;68.94;99941.06;2410962;73;51539;-75
2022/11/04 13:18:35;;;;;;;;;;;;;;;18.74;68.94;99950.59;2411612;73;50763;-76
2022/11/04 13:21:36;;;;;;;;;;;;;;;18.74;68.90;99953.80;2379395;73;49861;-74
2022/11/04 13:24:38;;;;;;;;;;;;;;;18.75;68.98;99956.29;2406757;74;50372;-76
2022/11/04 13:27:43;;;;;;;;;;;;;;;18.74;69.01;99965.34;2406841;73;51579;-75
2022/11/04 13:31:03;;;;;;;;;;;;;;;18.76;68.95;99968.69;2412631;73;22439;-75
2022/11/04 13:34:10;;;;;;;;;;;;;;;18.78;68.96;99964.44;2393136;72;49655;-75
2022/11/04 13:37:19;;;;;;;;;;;;;;;18.78;68.86;99973.34;2407906;73;50416;-75
2022/11/04 13:40:22;;;;;;;;;;;;;;;18.79;68.92;99970.95;2434072;72;50813;-74
2022/11/04 13:43:37;;;;;;;;;;;;;;;18.77;69.01;99977.02;2447147;72;51498;-75
2022/11/04 13:46:38;;;;;;;;;;;;;;;18.77;69.05;99970.84;2447298;72;50765;-76
2022/11/04 13:49:40;;;;;;;;;;;;;;;18.76;68.98;99976.72;2447582;72;50745;-76
2022/11/04 13:52:43;;;;;;;;;;;;;;;18.75;69.08;99975.05;2447208;72;51436;-76
2022/11/04 13:55:49;;;;;;;;;;;;;;;18.76;68.99;99970.54;2447107;72;51537;-75
2022/11/04 13:58:52;;;;;;;;;;;;;;;18.78;68.96;99968.46;2419589;72;51000;-77
2022/11/04 14:02:07;;;;;;;;;;;;;;;18.80;68.92;99967.23;2424158;72;50371;-77
2022/11/04 14:05:10;;;;;;;;;;;;;;;18.82;68.89;99963.84;2345889;73;50817;-76
2022/11/04 14:08:13;;;;;;;;;;;;;;;18.82;68.93;99961.16;2351406;74;51579;-76
2022/11/04 14:11:14;;;;;;;;;;;;;;;18.83;68.86;99956.63;2404723;74;49573;-75
2022/11/04 14:14:17;;;;;;;;;;;;;;;18.83;68.74;99958.81;2376684;74;50480;-77
2022/11/04 14:17:35;;;;;;;;;;;;;;;18.81;68.65;99968.91;2402670;73;51568;-76
2022/11/04 14:20:37;;;;;;;;;;;;;;;18.79;68.93;99970.13;2392214;73;50395;-77
2022/11/04 14:23:39;;;;;;;;;;;;;;;18.79;68.84;99964.77;2374925;73;49639;-78
2022/11/04 14:26:41;;;;;;;;;;;;;;;18.79;68.93;99958.08;2353554;73;51532;-77
2022/11/04 14:29:45;;;;;;;;;;;;;;;18.79;68.88;99961.58;2383677;73;50783;-77
2022/11/04 14:32:46;;;;;;;;;;;;;;;18.79;68.88;99970.95;2384392;73;50834;-76
2022/11/04 14:35:48;;;;;;;;;;;;;;;18.79;68.87;99970.13;2388775;73;49990;-76
2022/11/04 14:39:08;;;;;;;;;;;;;;;18.81;68.87;99970.25;2382971;73;51528;-76
2022/11/04 14:42:13;;;;;;;;;;;;;;;18.80;68.96;99975.27;2413377;73;50668;-77
2022/11/04 14:45:16;;;;;;;;;;;;;;;18.79;68.90;99979.00;2390957;73;50467;-74
2022/11/04 14:48:18;;;;;;;;;;;;;;;18.78;68.88;99982.72;2343087;75;50090;-75
2022/11/04 14:51:23;;;;;;;;;;;;;;;18.78;68.98;99996.12;2383738;72;51632;-75
2022/11/04 14:54:25;;;;;;;;;;;;;;;18.78;68.99;99997.45;2385527;73;24781;-75
2022/11/04 14:57:27;;;;;;;;;;;;;;;18.80;68.91;99995.89;2384749;73;51504;-75
2022/11/04 15:00:31;;;;;;;;;;;;;;;18.82;68.83;99990.65;2402271;73;51922;-75
2022/11/04 15:03:34;;;;;;;;;;;;;;;18.83;68.83;99989.64;2386848;73;50421;-75
2022/11/04 15:06:36;;;;;;;;;;;;;;;18.86;68.70;99991.09;2402536;73;51636;-76
2022/11/04 15:09:40;;;;;;;;;;;;;;;18.85;68.73;99994.78;2413009;73;51471;-76
2022/11/04 15:12:53;;;;;;;;;;;;;;;18.83;68.78;99995.00;2411961;73;50362;-76
2022/11/04 15:15:55;;;;;;;;;;;;;;;18.82;68.74;99997.35;2388374;73;50142;-77
2022/11/04 15:18:57;;;;;;;;;;;;;;;18.81;68.81;100001.07;2413082;73;50778;-76
2022/11/04 15:21:59;;;;;;;;;;;;;;;18.80;68.88;100007.44;2415544;73;50411;-75
2022/11/04 15:25:01;;;;;;;;;;;;;;;18.80;68.85;100002.08;2384830;73;52543;-75
2022/11/04 15:28:03;;;;;;;;;;;;;;;18.80;68.86;100013.32;2386048;73;50189;-75
2022/11/04 15:31:06;;;;;;;;;;;;;;;18.80;68.82;100014.66;2412394;73;49982;-75
2022/11/04 15:34:11;;;;;;;;;;;;;;;18.80;68.85;100026.72;2418411;72;50362;-75
2022/11/04 15:37:12;;;;;;;;;;;;;;;18.79;68.86;100024.56;2417075;73;22305;-75
2022/11/04 15:40:14;;;;;;;;;;;;;;;18.83;68.42;100028.51;2415105;73;50553;-73
2022/11/04 15:43:15;;;;;;;;;;;;;;;18.70;67.39;100021.69;2408668;72;50653;-73
2022/11/04 15:46:17;;;;;;;;;;;;;;;18.72;66.97;100023.66;2440213;72;51606;-74
2022/11/04 15:49:20;;;;;;;;;;;;;;;18.64;67.47;100018.48;2382120;73;52558;-75
2022/11/04 15:52:25;;;;;;;;;;;;;;;18.60;67.73;100017.20;2401673;73;51458;-74
2022/11/04 15:55:27;;;;;;;;;;;;;;;18.60;67.75;100016.72;2382249;73;51470;-75
2022/11/04 15:58:30;;;;;;;;;;;;;;;18.69;67.70;100020.05;2382674;73;51527;-75
2022/11/04 16:01:32;;;;;;;;;;;;;;;18.81;67.44;100024.38;2402680;73;49657;-75
2022/11/04 16:04:33;;;;;;;;;;;;;;;18.79;67.55;100023.73;2389167;73;50294;-74
2022/11/04 16:07:36;;;;;;;;;;;;;;;18.77;67.75;100025.78;2406636;73;50357;-76
2022/11/04 16:10:38;;;;;;;;;;;;;;;18.81;67.77;100034.58;2402321;74;50839;-74
2022/11/04 16:13:40;;;;;;;;;;;;;;;18.79;67.61;100037.96;2376578;74;49630;-75
2022/11/04 16:16:43;;;;;;;;;;;;;;;18.84;68.00;100036.84;2386489;72;49860;-74
2022/11/04 16:19:45;;;;;;;;;;;;;;;18.88;67.70;100049.33;2422663;72;50407;-75
2022/11/04 16:22:47;;;;;;;;;;;;;;;18.82;68.01;100040.75;2444206;72;51559;-75
2022/11/04 16:25:59;;;;;;;;;;;;;;;18.87;67.89;100039.64;2420878;72;50712;-75
2022/11/04 16:29:00;;;;;;;;;;;;;;;18.91;67.72;100038.23;2420850;72;49603;-76